sensor_id;sensor_type;location;lat;lon;timestamp;P1;durP1;ratioP1;P2;durP2;ratioP2
62056;SDS011;48016;50.284;18.860;2022-08-21T00:00:05;26.53;;;19.88;;
62056;SDS011;48016;50.284;18.860;2022-08-21T00:02:35;26.70;;;20.57;;
62056;SDS011;48016;50.284;18.860;2022-08-21T00:05:03;27.60;;;20.98;;
62056;SDS011;48016;50.284;18.860;2022-08-21T00:07:31;25.95;;;20.35;;
62056;SDS011;48016;50.284;18.860;2022-08-21T00:09:59;31.13;;;20.78;;
62056;SDS011;48016;50.284;18.860;2022-08-21T00:12:26;26.93;;;20.63;;
62056;SDS011;48016;50.284;18.860;2022-08-21T00:14:53;26.70;;;19.40;;
62056;SDS011;48016;50.284;18.860;2022-08-21T00:19:48;26.13;;;16.93;;
62056;SDS011;48016;50.284;18.860;2022-08-21T00:22:16;20.97;;;16.53;;
62056;SDS011;48016;50.284;18.860;2022-08-21T00:24:43;22.33;;;16.33;;
62056;SDS011;48016;50.284;18.860;2022-08-21T00:32:05;18.70;;;14.95;;
62056;SDS011;48016;50.284;18.860;2022-08-21T00:36:59;20.00;;;15.90;;
62056;SDS011;48016;50.284;18.860;2022-08-21T00:39:26;21.33;;;15.30;;
62056;SDS011;48016;50.284;18.860;2022-08-21T00:41:53;23.00;;;16.20;;
62056;SDS011;48016;50.284;18.860;2022-08-21T00:49:14;20.23;;;14.73;;
62056;SDS011;48016;50.284;18.860;2022-08-21T00:51:44;17.87;;;13.63;;
62056;SDS011;48016;50.284;18.860;2022-08-21T00:54:25;20.10;;;14.48;;
62056;SDS011;48016;50.284;18.860;2022-08-21T00:56:59;17.55;;;13.18;;
62056;SDS011;48016;50.284;18.860;2022-08-21T00:59:29;19.03;;;14.38;;
62056;SDS011;48016;50.284;18.860;2022-08-21T01:02:01;17.87;;;13.43;;
62056;SDS011;48016;50.284;18.860;2022-08-21T01:04:30;18.78;;;14.30;;
62056;SDS011;48016;50.284;18.860;2022-08-21T01:06:57;18.63;;;13.35;;
62056;SDS011;48016;50.284;18.860;2022-08-21T01:09:25;15.53;;;11.73;;
62056;SDS011;48016;50.284;18.860;2022-08-21T01:11:53;16.63;;;11.10;;
62056;SDS011;48016;50.284;18.860;2022-08-21T01:14:21;14.20;;;10.75;;
62056;SDS011;48016;50.284;18.860;2022-08-21T01:16:50;16.45;;;11.40;;
62056;SDS011;48016;50.284;18.860;2022-08-21T01:19:19;17.58;;;11.30;;
62056;SDS011;48016;50.284;18.860;2022-08-21T01:21:48;16.70;;;11.15;;
62056;SDS011;48016;50.284;18.860;2022-08-21T01:24:15;16.98;;;11.73;;
62056;SDS011;48016;50.284;18.860;2022-08-21T01:26:43;13.78;;;11.25;;
62056;SDS011;48016;50.284;18.860;2022-08-21T01:29:58;15.95;;;10.95;;
62056;SDS011;48016;50.284;18.860;2022-08-21T01:32:19;15.00;;;10.78;;
62056;SDS011;48016;50.284;18.860;2022-08-21T01:34:47;16.13;;;11.20;;
62056;SDS011;48016;50.284;18.860;2022-08-21T01:37:17;15.30;;;10.40;;
62056;SDS011;48016;50.284;18.860;2022-08-21T01:39:46;14.65;;;11.18;;
62056;SDS011;48016;50.284;18.860;2022-08-21T01:42:13;13.70;;;11.15;;
62056;SDS011;48016;50.284;18.860;2022-08-21T01:44:41;15.13;;;10.75;;
62056;SDS011;48016;50.284;18.860;2022-08-21T01:47:10;17.13;;;11.23;;
62056;SDS011;48016;50.284;18.860;2022-08-21T01:49:43;17.03;;;11.90;;
62056;SDS011;48016;50.284;18.860;2022-08-21T01:52:10;14.75;;;10.10;;
62056;SDS011;48016;50.284;18.860;2022-08-21T01:54:38;14.45;;;11.10;;
62056;SDS011;48016;50.284;18.860;2022-08-21T01:57:05;15.58;;;10.13;;
62056;SDS011;48016;50.284;18.860;2022-08-21T01:59:34;15.20;;;10.18;;
62056;SDS011;48016;50.284;18.860;2022-08-21T02:02:02;14.55;;;10.53;;
62056;SDS011;48016;50.284;18.860;2022-08-21T02:04:30;14.40;;;10.80;;
62056;SDS011;48016;50.284;18.860;2022-08-21T02:06:58;14.90;;;11.25;;
62056;SDS011;48016;50.284;18.860;2022-08-21T02:09:26;16.40;;;11.30;;
62056;SDS011;48016;50.284;18.860;2022-08-21T02:11:55;14.40;;;11.08;;
62056;SDS011;48016;50.284;18.860;2022-08-21T02:14:23;13.68;;;10.58;;
62056;SDS011;48016;50.284;18.860;2022-08-21T02:16:50;15.00;;;10.23;;
62056;SDS011;48016;50.284;18.860;2022-08-21T02:19:17;16.13;;;11.20;;
62056;SDS011;48016;50.284;18.860;2022-08-21T02:24:11;16.90;;;11.30;;
62056;SDS011;48016;50.284;18.860;2022-08-21T02:26:39;18.13;;;11.48;;
62056;SDS011;48016;50.284;18.860;2022-08-21T02:29:06;17.08;;;11.58;;
62056;SDS011;48016;50.284;18.860;2022-08-21T02:31:34;16.05;;;11.40;;
62056;SDS011;48016;50.284;18.860;2022-08-21T02:34:01;14.93;;;11.28;;
62056;SDS011;48016;50.284;18.860;2022-08-21T02:36:29;13.98;;;11.18;;
62056;SDS011;48016;50.284;18.860;2022-08-21T02:38:57;17.53;;;12.57;;
62056;SDS011;48016;50.284;18.860;2022-08-21T02:41:24;18.65;;;13.28;;
62056;SDS011;48016;50.284;18.860;2022-08-21T02:43:51;20.10;;;13.03;;
62056;SDS011;48016;50.284;18.860;2022-08-21T02:46:18;17.25;;;13.45;;
62056;SDS011;48016;50.284;18.860;2022-08-21T02:48:47;20.43;;;15.00;;
62056;SDS011;48016;50.284;18.860;2022-08-21T02:53:46;26.13;;;19.18;;
62056;SDS011;48016;50.284;18.860;2022-08-21T02:56:15;27.55;;;20.85;;
62056;SDS011;48016;50.284;18.860;2022-08-21T02:58:46;37.48;;;27.78;;
62056;SDS011;48016;50.284;18.860;2022-08-21T03:01:15;39.90;;;25.80;;
62056;SDS011;48016;50.284;18.860;2022-08-21T03:03:43;43.40;;;32.98;;
62056;SDS011;48016;50.284;18.860;2022-08-21T03:06:14;43.77;;;33.90;;
62056;SDS011;48016;50.284;18.860;2022-08-21T03:08:43;45.93;;;34.00;;
62056;SDS011;48016;50.284;18.860;2022-08-21T03:11:12;45.17;;;33.87;;
62056;SDS011;48016;50.284;18.860;2022-08-21T03:13:40;43.35;;;32.10;;
62056;SDS011;48016;50.284;18.860;2022-08-21T03:16:08;40.03;;;31.70;;
62056;SDS011;48016;50.284;18.860;2022-08-21T03:18:36;42.77;;;30.07;;
62056;SDS011;48016;50.284;18.860;2022-08-21T03:21:03;42.97;;;30.07;;
62056;SDS011;48016;50.284;18.860;2022-08-21T03:23:31;41.08;;;30.03;;
62056;SDS011;48016;50.284;18.860;2022-08-21T03:25:59;35.93;;;27.88;;
62056;SDS011;48016;50.284;18.860;2022-08-21T03:28:26;44.25;;;31.68;;
62056;SDS011;48016;50.284;18.860;2022-08-21T03:33:20;44.43;;;29.75;;
62056;SDS011;48016;50.284;18.860;2022-08-21T03:35:58;43.43;;;29.28;;
62056;SDS011;48016;50.284;18.860;2022-08-21T03:38:30;43.85;;;30.78;;
62056;SDS011;48016;50.284;18.860;2022-08-21T03:40:58;45.75;;;31.93;;
62056;SDS011;48016;50.284;18.860;2022-08-21T03:43:27;39.43;;;28.33;;
62056;SDS011;48016;50.284;18.860;2022-08-21T03:45:54;41.63;;;29.13;;
62056;SDS011;48016;50.284;18.860;2022-08-21T03:48:22;41.85;;;29.45;;
62056;SDS011;48016;50.284;18.860;2022-08-21T03:50:51;38.43;;;26.40;;
62056;SDS011;48016;50.284;18.860;2022-08-21T03:53:19;31.10;;;22.63;;
62056;SDS011;48016;50.284;18.860;2022-08-21T03:55:47;31.53;;;24.00;;
62056;SDS011;48016;50.284;18.860;2022-08-21T03:58:16;33.05;;;21.90;;
62056;SDS011;48016;50.284;18.860;2022-08-21T04:00:45;35.60;;;20.80;;
62056;SDS011;48016;50.284;18.860;2022-08-21T04:03:15;29.48;;;20.90;;
62056;SDS011;48016;50.284;18.860;2022-08-21T04:05:43;33.40;;;21.45;;
62056;SDS011;48016;50.284;18.860;2022-08-21T04:08:12;32.10;;;20.35;;
62056;SDS011;48016;50.284;18.860;2022-08-21T04:10:41;29.70;;;20.40;;
62056;SDS011;48016;50.284;18.860;2022-08-21T04:13:10;29.25;;;19.40;;
62056;SDS011;48016;50.284;18.860;2022-08-21T04:15:37;26.85;;;19.40;;
62056;SDS011;48016;50.284;18.860;2022-08-21T04:18:05;28.80;;;19.78;;
62056;SDS011;48016;50.284;18.860;2022-08-21T04:22:59;27.83;;;19.33;;
62056;SDS011;48016;50.284;18.860;2022-08-21T04:25:27;27.13;;;19.30;;
62056;SDS011;48016;50.284;18.860;2022-08-21T04:27:55;27.63;;;18.63;;
62056;SDS011;48016;50.284;18.860;2022-08-21T04:30:23;32.07;;;20.63;;
62056;SDS011;48016;50.284;18.860;2022-08-21T04:32:52;28.20;;;19.10;;
62056;SDS011;48016;50.284;18.860;2022-08-21T04:35:20;31.20;;;20.18;;
62056;SDS011;48016;50.284;18.860;2022-08-21T04:37:49;29.60;;;20.15;;
62056;SDS011;48016;50.284;18.860;2022-08-21T04:40:17;27.48;;;19.40;;
62056;SDS011;48016;50.284;18.860;2022-08-21T04:42:46;27.45;;;20.23;;
62056;SDS011;48016;50.284;18.860;2022-08-21T04:45:25;26.70;;;19.78;;
62056;SDS011;48016;50.284;18.860;2022-08-21T04:47:57;28.25;;;19.38;;
62056;SDS011;48016;50.284;18.860;2022-08-21T04:50:27;31.93;;;20.13;;
62056;SDS011;48016;50.284;18.860;2022-08-21T04:53:16;28.63;;;20.00;;
62056;SDS011;48016;50.284;18.860;2022-08-21T04:56:01;29.08;;;19.58;;
62056;SDS011;48016;50.284;18.860;2022-08-21T04:58:39;31.30;;;20.90;;
62056;SDS011;48016;50.284;18.860;2022-08-21T05:01:09;27.48;;;19.18;;
62056;SDS011;48016;50.284;18.860;2022-08-21T05:03:42;27.18;;;18.38;;
62056;SDS011;48016;50.284;18.860;2022-08-21T05:06:11;29.48;;;20.90;;
62056;SDS011;48016;50.284;18.860;2022-08-21T05:08:41;26.73;;;19.55;;
62056;SDS011;48016;50.284;18.860;2022-08-21T05:11:12;29.28;;;20.15;;
62056;SDS011;48016;50.284;18.860;2022-08-21T05:13:39;31.20;;;20.13;;
62056;SDS011;48016;50.284;18.860;2022-08-21T05:16:09;25.25;;;18.50;;
62056;SDS011;48016;50.284;18.860;2022-08-21T05:21:03;30.85;;;17.25;;
62056;SDS011;48016;50.284;18.860;2022-08-21T05:23:31;24.45;;;18.33;;
62056;SDS011;48016;50.284;18.860;2022-08-21T05:25:58;26.20;;;19.55;;
62056;SDS011;48016;50.284;18.860;2022-08-21T05:28:26;28.75;;;19.58;;
62056;SDS011;48016;50.284;18.860;2022-08-21T05:30:53;29.78;;;19.53;;
62056;SDS011;48016;50.284;18.860;2022-08-21T05:35:51;32.27;;;21.17;;
62056;SDS011;48016;50.284;18.860;2022-08-21T05:38:23;29.13;;;20.80;;
62056;SDS011;48016;50.284;18.860;2022-08-21T05:40:51;32.50;;;22.23;;
62056;SDS011;48016;50.284;18.860;2022-08-21T05:45:46;32.30;;;20.75;;
62056;SDS011;48016;50.284;18.860;2022-08-21T05:48:20;31.83;;;21.90;;
62056;SDS011;48016;50.284;18.860;2022-08-21T05:50:49;38.15;;;24.43;;
62056;SDS011;48016;50.284;18.860;2022-08-21T05:53:18;37.80;;;25.30;;
62056;SDS011;48016;50.284;18.860;2022-08-21T05:55:47;36.53;;;24.50;;
62056;SDS011;48016;50.284;18.860;2022-08-21T05:58:16;34.57;;;24.83;;
62056;SDS011;48016;50.284;18.860;2022-08-21T06:00:46;35.68;;;22.45;;
62056;SDS011;48016;50.284;18.860;2022-08-21T06:03:16;35.95;;;22.38;;
62056;SDS011;48016;50.284;18.860;2022-08-21T06:05:46;30.53;;;21.05;;
62056;SDS011;48016;50.284;18.860;2022-08-21T06:10:41;16.25;;;10.55;;
62056;SDS011;48016;50.284;18.860;2022-08-21T06:13:09;8.95;;;7.28;;
62056;SDS011;48016;50.284;18.860;2022-08-21T06:15:37;9.08;;;6.40;;
62056;SDS011;48016;50.284;18.860;2022-08-21T06:18:04;8.83;;;6.00;;
62056;SDS011;48016;50.284;18.860;2022-08-21T06:20:32;8.58;;;5.00;;
62056;SDS011;48016;50.284;18.860;2022-08-21T06:22:59;6.78;;;4.55;;
62056;SDS011;48016;50.284;18.860;2022-08-21T06:25:27;8.08;;;4.73;;
62056;SDS011;48016;50.284;18.860;2022-08-21T06:28:05;6.50;;;4.25;;
62056;SDS011;48016;50.284;18.860;2022-08-21T06:30:34;6.25;;;3.63;;
62056;SDS011;48016;50.284;18.860;2022-08-21T06:33:02;6.25;;;4.00;;
62056;SDS011;48016;50.284;18.860;2022-08-21T06:37:57;4.80;;;3.03;;
62056;SDS011;48016;50.284;18.860;2022-08-21T06:40:25;6.43;;;2.83;;
62056;SDS011;48016;50.284;18.860;2022-08-21T06:42:53;5.00;;;2.05;;
62056;SDS011;48016;50.284;18.860;2022-08-21T06:45:20;4.18;;;1.98;;
62056;SDS011;48016;50.284;18.860;2022-08-21T06:47:48;3.30;;;1.80;;
62056;SDS011;48016;50.284;18.860;2022-08-21T06:50:15;2.20;;;1.20;;
62056;SDS011;48016;50.284;18.860;2022-08-21T06:57:36;1.48;;;0.80;;
62056;SDS011;48016;50.284;18.860;2022-08-21T07:00:04;1.68;;;0.78;;
62056;SDS011;48016;50.284;18.860;2022-08-21T07:02:32;3.33;;;0.90;;
62056;SDS011;48016;50.284;18.860;2022-08-21T07:05:00;4.00;;;1.10;;
62056;SDS011;48016;50.284;18.860;2022-08-21T07:07:28;2.20;;;0.70;;
62056;SDS011;48016;50.284;18.860;2022-08-21T07:09:55;2.08;;;0.55;;
62056;SDS011;48016;50.284;18.860;2022-08-21T07:17:15;1.98;;;0.50;;
62056;SDS011;48016;50.284;18.860;2022-08-21T07:22:09;1.95;;;0.60;;
62056;SDS011;48016;50.284;18.860;2022-08-21T07:24:38;2.50;;;0.60;;
62056;SDS011;48016;50.284;18.860;2022-08-21T07:27:05;1.38;;;0.68;;
62056;SDS011;48016;50.284;18.860;2022-08-21T07:29:32;1.30;;;0.67;;
62056;SDS011;48016;50.284;18.860;2022-08-21T07:32:00;1.70;;;0.55;;
62056;SDS011;48016;50.284;18.860;2022-08-21T07:34:27;2.35;;;0.75;;
62056;SDS011;48016;50.284;18.860;2022-08-21T07:36:54;2.03;;;0.53;;
62056;SDS011;48016;50.284;18.860;2022-08-21T07:44:15;1.70;;;0.63;;
62056;SDS011;48016;50.284;18.860;2022-08-21T07:46:42;1.83;;;0.80;;
62056;SDS011;48016;50.284;18.860;2022-08-21T07:51:36;2.43;;;0.50;;
62056;SDS011;48016;50.284;18.860;2022-08-21T07:54:03;1.50;;;0.53;;
62056;SDS011;48016;50.284;18.860;2022-08-21T07:58:58;1.70;;;0.60;;
62056;SDS011;48016;50.284;18.860;2022-08-21T08:03:52;2.58;;;0.60;;
62056;SDS011;48016;50.284;18.860;2022-08-21T08:08:46;1.80;;;0.65;;
62056;SDS011;48016;50.284;18.860;2022-08-21T08:11:13;1.83;;;0.48;;
62056;SDS011;48016;50.284;18.860;2022-08-21T08:13:42;2.00;;;0.48;;
62056;SDS011;48016;50.284;18.860;2022-08-21T08:16:14;1.28;;;0.40;;
62056;SDS011;48016;50.284;18.860;2022-08-21T08:18:42;2.03;;;0.50;;
62056;SDS011;48016;50.284;18.860;2022-08-21T08:21:11;2.30;;;0.50;;
62056;SDS011;48016;50.284;18.860;2022-08-21T08:23:39;1.10;;;0.70;;
62056;SDS011;48016;50.284;18.860;2022-08-21T08:26:07;1.30;;;0.60;;
62056;SDS011;48016;50.284;18.860;2022-08-21T08:31:01;0.80;;;0.43;;
62056;SDS011;48016;50.284;18.860;2022-08-21T08:33:29;1.30;;;0.55;;
62056;SDS011;48016;50.284;18.860;2022-08-21T08:35:56;1.25;;;0.63;;
62056;SDS011;48016;50.284;18.860;2022-08-21T08:38:24;1.20;;;0.60;;
62056;SDS011;48016;50.284;18.860;2022-08-21T08:40:57;2.93;;;0.60;;
62056;SDS011;48016;50.284;18.860;2022-08-21T08:43:34;1.10;;;0.50;;
62056;SDS011;48016;50.284;18.860;2022-08-21T08:46:03;1.05;;;0.68;;
62056;SDS011;48016;50.284;18.860;2022-08-21T08:53:56;0.73;;;0.50;;
62056;SDS011;48016;50.284;18.860;2022-08-21T08:56:30;1.93;;;0.50;;
62056;SDS011;48016;50.284;18.860;2022-08-21T08:59:08;1.20;;;0.80;;
62056;SDS011;48016;50.284;18.860;2022-08-21T09:01:41;1.57;;;0.90;;
62056;SDS011;48016;50.284;18.860;2022-08-21T09:04:09;2.03;;;0.90;;
62056;SDS011;48016;50.284;18.860;2022-08-21T09:11:58;1.55;;;1.00;;
62056;SDS011;48016;50.284;18.860;2022-08-21T09:17:36;2.43;;;1.25;;
62056;SDS011;48016;50.284;18.860;2022-08-21T09:26:05;1.57;;;1.20;;
62056;SDS011;48016;50.284;18.860;2022-08-21T09:28:38;4.83;;;1.50;;
62056;SDS011;48016;50.284;18.860;2022-08-21T09:34:01;1.73;;;1.35;;
62056;SDS011;48016;50.284;18.860;2022-08-21T09:39:01;3.38;;;1.40;;
62056;SDS011;48016;50.284;18.860;2022-08-21T09:41:30;2.73;;;1.35;;
62056;SDS011;48016;50.284;18.860;2022-08-21T09:44:02;2.93;;;1.50;;
62056;SDS011;48016;50.284;18.860;2022-08-21T09:46:30;3.40;;;1.88;;
62056;SDS011;48016;50.284;18.860;2022-08-21T09:48:59;2.23;;;1.20;;
62056;SDS011;48016;50.284;18.860;2022-08-21T09:51:32;2.43;;;1.48;;
62056;SDS011;48016;50.284;18.860;2022-08-21T09:56:33;2.58;;;1.48;;
62056;SDS011;48016;50.284;18.860;2022-08-21T09:59:26;3.30;;;1.60;;
62056;SDS011;48016;50.284;18.860;2022-08-21T10:01:58;2.63;;;1.73;;
62056;SDS011;48016;50.284;18.860;2022-08-21T10:04:29;3.85;;;1.95;;
62056;SDS011;48016;50.284;18.860;2022-08-21T10:07:08;2.60;;;1.60;;
62056;SDS011;48016;50.284;18.860;2022-08-21T10:09:36;1.78;;;1.40;;
62056;SDS011;48016;50.284;18.860;2022-08-21T10:12:16;1.95;;;1.50;;
62056;SDS011;48016;50.284;18.860;2022-08-21T10:17:52;2.40;;;1.40;;
62056;SDS011;48016;50.284;18.860;2022-08-21T10:20:25;3.43;;;1.50;;
62056;SDS011;48016;50.284;18.860;2022-08-21T10:37:18;3.58;;;2.10;;
62056;SDS011;48016;50.284;18.860;2022-08-21T10:47:55;2.90;;;1.78;;
62056;SDS011;48016;50.284;18.860;2022-08-21T10:53:15;3.00;;;2.05;;
62056;SDS011;48016;50.284;18.860;2022-08-21T10:56:13;3.00;;;2.00;;
62056;SDS011;48016;50.284;18.860;2022-08-21T10:58:45;2.70;;;1.88;;
62056;SDS011;48016;50.284;18.860;2022-08-21T11:01:28;2.68;;;2.15;;
62056;SDS011;48016;50.284;18.860;2022-08-21T11:04:12;3.05;;;2.23;;
62056;SDS011;48016;50.284;18.860;2022-08-21T11:06:47;2.53;;;1.90;;
62056;SDS011;48016;50.284;18.860;2022-08-21T11:09:20;2.85;;;2.13;;
62056;SDS011;48016;50.284;18.860;2022-08-21T11:11:56;2.50;;;1.90;;
62056;SDS011;48016;50.284;18.860;2022-08-21T11:17:37;2.57;;;2.27;;
62056;SDS011;48016;50.284;18.860;2022-08-21T11:25:47;2.43;;;2.03;;
62056;SDS011;48016;50.284;18.860;2022-08-21T11:28:28;3.10;;;2.35;;
62056;SDS011;48016;50.284;18.860;2022-08-21T11:34:03;3.35;;;2.18;;
62056;SDS011;48016;50.284;18.860;2022-08-21T11:39:22;2.45;;;2.20;;
62056;SDS011;48016;50.284;18.860;2022-08-21T11:42:19;2.48;;;1.73;;
62056;SDS011;48016;50.284;18.860;2022-08-21T11:47:56;2.20;;;2.00;;
62056;SDS011;48016;50.284;18.860;2022-08-21T11:50:33;1.58;;;1.48;;
62056;SDS011;48016;50.284;18.860;2022-08-21T11:53:08;2.20;;;1.80;;
62056;SDS011;48016;50.284;18.860;2022-08-21T11:55:40;1.60;;;1.30;;
62056;SDS011;48016;50.284;18.860;2022-08-21T12:00:49;1.40;;;1.30;;
62056;SDS011;48016;50.284;18.860;2022-08-21T12:03:31;1.80;;;1.70;;
62056;SDS011;48016;50.284;18.860;2022-08-21T12:06:06;2.10;;;1.58;;
62056;SDS011;48016;50.284;18.860;2022-08-21T12:08:39;2.05;;;1.40;;
62056;SDS011;48016;50.284;18.860;2022-08-21T12:16:46;1.03;;;1.03;;
62056;SDS011;48016;50.284;18.860;2022-08-21T12:22:10;1.40;;;1.30;;
62056;SDS011;48016;50.284;18.860;2022-08-21T12:24:42;1.60;;;1.50;;
62056;SDS011;48016;50.284;18.860;2022-08-21T12:35:31;2.28;;;1.98;;
62056;SDS011;48016;50.284;18.860;2022-08-21T12:38:09;2.93;;;2.03;;
62056;SDS011;48016;50.284;18.860;2022-08-21T12:43:32;2.83;;;2.45;;
62056;SDS011;48016;50.284;18.860;2022-08-21T12:46:13;3.30;;;2.50;;
62056;SDS011;48016;50.284;18.860;2022-08-21T12:48:52;2.90;;;2.38;;
62056;SDS011;48016;50.284;18.860;2022-08-21T12:51:36;3.43;;;2.40;;
62056;SDS011;48016;50.284;18.860;2022-08-21T12:54:24;2.75;;;2.43;;
62056;SDS011;48016;50.284;18.860;2022-08-21T12:57:05;4.15;;;2.60;;
62056;SDS011;48016;50.284;18.860;2022-08-21T12:59:37;4.38;;;3.03;;
62056;SDS011;48016;50.284;18.860;2022-08-21T13:02:11;3.50;;;3.03;;
62056;SDS011;48016;50.284;18.860;2022-08-21T13:04:46;4.20;;;2.83;;
62056;SDS011;48016;50.284;18.860;2022-08-21T13:07:19;3.80;;;2.88;;
62056;SDS011;48016;50.284;18.860;2022-08-21T13:09:53;4.28;;;2.93;;
62056;SDS011;48016;50.284;18.860;2022-08-21T13:12:33;3.33;;;2.90;;
62056;SDS011;48016;50.284;18.860;2022-08-21T13:15:03;5.35;;;2.75;;
62056;SDS011;48016;50.284;18.860;2022-08-21T13:17:34;3.58;;;3.13;;
62056;SDS011;48016;50.284;18.860;2022-08-21T13:20:05;3.80;;;2.80;;
62056;SDS011;48016;50.284;18.860;2022-08-21T13:22:45;3.63;;;2.95;;
62056;SDS011;48016;50.284;18.860;2022-08-21T13:25:15;2.93;;;2.53;;
62056;SDS011;48016;50.284;18.860;2022-08-21T13:27:45;3.10;;;2.30;;
62056;SDS011;48016;50.284;18.860;2022-08-21T13:30:27;3.20;;;2.63;;
62056;SDS011;48016;50.284;18.860;2022-08-21T13:32:57;3.08;;;2.45;;
62056;SDS011;48016;50.284;18.860;2022-08-21T13:35:30;3.38;;;2.55;;
62056;SDS011;48016;50.284;18.860;2022-08-21T13:38:03;5.08;;;2.93;;
62056;SDS011;48016;50.284;18.860;2022-08-21T13:40:33;3.35;;;2.95;;
62056;SDS011;48016;50.284;18.860;2022-08-21T13:43:17;4.10;;;2.93;;
62056;SDS011;48016;50.284;18.860;2022-08-21T13:45:51;3.55;;;3.03;;
62056;SDS011;48016;50.284;18.860;2022-08-21T13:48:20;4.10;;;2.83;;
62056;SDS011;48016;50.284;18.860;2022-08-21T13:50:49;5.15;;;2.90;;
62056;SDS011;48016;50.284;18.860;2022-08-21T13:53:23;3.73;;;3.00;;
62056;SDS011;48016;50.284;18.860;2022-08-21T13:56:24;3.18;;;2.70;;
62056;SDS011;48016;50.284;18.860;2022-08-21T13:58:52;4.35;;;3.05;;
62056;SDS011;48016;50.284;18.860;2022-08-21T14:04:16;4.43;;;3.08;;
62056;SDS011;48016;50.284;18.860;2022-08-21T14:06:48;4.28;;;3.53;;
62056;SDS011;48016;50.284;18.860;2022-08-21T14:09:25;4.43;;;3.58;;
62056;SDS011;48016;50.284;18.860;2022-08-21T14:11:59;4.63;;;3.55;;
62056;SDS011;48016;50.284;18.860;2022-08-21T14:14:37;5.25;;;3.73;;
62056;SDS011;48016;50.284;18.860;2022-08-21T14:17:07;3.98;;;3.20;;
62056;SDS011;48016;50.284;18.860;2022-08-21T14:19:42;3.50;;;2.60;;
62056;SDS011;48016;50.284;18.860;2022-08-21T14:25:06;4.15;;;2.63;;
62056;SDS011;48016;50.284;18.860;2022-08-21T14:30:37;4.23;;;2.73;;
62056;SDS011;48016;50.284;18.860;2022-08-21T14:33:11;3.48;;;2.75;;
62056;SDS011;48016;50.284;18.860;2022-08-21T14:35:48;4.83;;;3.25;;
62056;SDS011;48016;50.284;18.860;2022-08-21T14:38:16;3.83;;;3.23;;
62056;SDS011;48016;50.284;18.860;2022-08-21T14:40:49;6.27;;;4.17;;
62056;SDS011;48016;50.284;18.860;2022-08-21T14:43:19;4.33;;;3.28;;
62056;SDS011;48016;50.284;18.860;2022-08-21T14:45:47;3.98;;;3.20;;
62056;SDS011;48016;50.284;18.860;2022-08-21T14:48:14;4.68;;;3.58;;
62056;SDS011;48016;50.284;18.860;2022-08-21T14:50:41;4.28;;;3.38;;
62056;SDS011;48016;50.284;18.860;2022-08-21T14:55:36;6.60;;;3.43;;
62056;SDS011;48016;50.284;18.860;2022-08-21T14:58:22;5.07;;;3.33;;
62056;SDS011;48016;50.284;18.860;2022-08-21T15:00:51;4.90;;;3.30;;
62056;SDS011;48016;50.284;18.860;2022-08-21T15:03:20;5.35;;;2.78;;
62056;SDS011;48016;50.284;18.860;2022-08-21T15:05:48;4.78;;;3.28;;
62056;SDS011;48016;50.284;18.860;2022-08-21T15:08:16;5.05;;;2.88;;
62056;SDS011;48016;50.284;18.860;2022-08-21T15:10:44;5.23;;;2.85;;
62056;SDS011;48016;50.284;18.860;2022-08-21T15:13:12;4.83;;;3.00;;
62056;SDS011;48016;50.284;18.860;2022-08-21T15:15:41;4.03;;;3.18;;
62056;SDS011;48016;50.284;18.860;2022-08-21T15:18:10;4.28;;;3.35;;
62056;SDS011;48016;50.284;18.860;2022-08-21T15:20:38;6.03;;;3.55;;
62056;SDS011;48016;50.284;18.860;2022-08-21T15:23:06;4.55;;;3.58;;
62056;SDS011;48016;50.284;18.860;2022-08-21T15:25:34;4.35;;;3.53;;
62056;SDS011;48016;50.284;18.860;2022-08-21T15:28:02;4.63;;;3.78;;
62056;SDS011;48016;50.284;18.860;2022-08-21T15:30:30;4.97;;;3.60;;
62056;SDS011;48016;50.284;18.860;2022-08-21T15:32:58;5.73;;;3.73;;
62056;SDS011;48016;50.284;18.860;2022-08-21T15:35:25;7.07;;;3.70;;
62056;SDS011;48016;50.284;18.860;2022-08-21T15:37:52;4.90;;;3.58;;
62056;SDS011;48016;50.284;18.860;2022-08-21T15:40:19;6.35;;;3.68;;
62056;SDS011;48016;50.284;18.860;2022-08-21T15:42:47;5.00;;;4.15;;
62056;SDS011;48016;50.284;18.860;2022-08-21T15:45:14;4.85;;;3.93;;
62056;SDS011;48016;50.284;18.860;2022-08-21T15:47:42;5.65;;;4.03;;
62056;SDS011;48016;50.284;18.860;2022-08-21T15:50:11;6.10;;;4.13;;
62056;SDS011;48016;50.284;18.860;2022-08-21T15:52:39;6.48;;;4.03;;
62056;SDS011;48016;50.284;18.860;2022-08-21T15:55:08;5.55;;;4.55;;
62056;SDS011;48016;50.284;18.860;2022-08-21T15:57:37;5.60;;;4.10;;
62056;SDS011;48016;50.284;18.860;2022-08-21T16:00:13;6.10;;;3.60;;
62056;SDS011;48016;50.284;18.860;2022-08-21T16:02:44;5.30;;;3.70;;
62056;SDS011;48016;50.284;18.860;2022-08-21T16:05:15;5.58;;;3.78;;
62056;SDS011;48016;50.284;18.860;2022-08-21T16:07:45;5.68;;;4.00;;
62056;SDS011;48016;50.284;18.860;2022-08-21T16:10:14;6.48;;;3.40;;
62056;SDS011;48016;50.284;18.860;2022-08-21T16:12:45;7.85;;;3.85;;
62056;SDS011;48016;50.284;18.860;2022-08-21T16:15:15;5.80;;;4.43;;
62056;SDS011;48016;50.284;18.860;2022-08-21T16:17:44;6.05;;;4.65;;
62056;SDS011;48016;50.284;18.860;2022-08-21T16:20:16;5.50;;;4.03;;
62056;SDS011;48016;50.284;18.860;2022-08-21T16:22:45;7.53;;;4.40;;
62056;SDS011;48016;50.284;18.860;2022-08-21T16:25:13;6.33;;;4.20;;
62056;SDS011;48016;50.284;18.860;2022-08-21T16:27:42;6.68;;;4.63;;
62056;SDS011;48016;50.284;18.860;2022-08-21T16:30:17;6.15;;;4.45;;
62056;SDS011;48016;50.284;18.860;2022-08-21T16:32:45;8.08;;;4.73;;
62056;SDS011;48016;50.284;18.860;2022-08-21T16:35:15;8.43;;;4.50;;
62056;SDS011;48016;50.284;18.860;2022-08-21T16:37:44;7.25;;;4.55;;
62056;SDS011;48016;50.284;18.860;2022-08-21T16:40:12;6.73;;;4.10;;
62056;SDS011;48016;50.284;18.860;2022-08-21T16:42:41;8.60;;;4.68;;
62056;SDS011;48016;50.284;18.860;2022-08-21T16:45:10;6.98;;;5.13;;
62056;SDS011;48016;50.284;18.860;2022-08-21T16:47:39;7.43;;;5.08;;
62056;SDS011;48016;50.284;18.860;2022-08-21T16:50:07;8.10;;;5.00;;
62056;SDS011;48016;50.284;18.860;2022-08-21T16:52:35;7.33;;;4.78;;
62056;SDS011;48016;50.284;18.860;2022-08-21T16:55:02;5.70;;;3.85;;
62056;SDS011;48016;50.284;18.860;2022-08-21T16:57:30;7.10;;;4.35;;
62056;SDS011;48016;50.284;18.860;2022-08-21T16:59:58;6.90;;;4.33;;
62056;SDS011;48016;50.284;18.860;2022-08-21T17:04:55;5.85;;;3.60;;
62056;SDS011;48016;50.284;18.860;2022-08-21T17:07:23;5.57;;;3.53;;
62056;SDS011;48016;50.284;18.860;2022-08-21T17:09:50;6.13;;;3.45;;
62056;SDS011;48016;50.284;18.860;2022-08-21T17:17:12;5.15;;;3.30;;
62056;SDS011;48016;50.284;18.860;2022-08-21T17:19:40;5.45;;;3.45;;
62056;SDS011;48016;50.284;18.860;2022-08-21T17:22:08;4.35;;;3.00;;
62056;SDS011;48016;50.284;18.860;2022-08-21T17:24:36;3.70;;;2.80;;
62056;SDS011;48016;50.284;18.860;2022-08-21T17:27:04;4.18;;;2.98;;
62056;SDS011;48016;50.284;18.860;2022-08-21T17:29:35;5.00;;;3.00;;
62056;SDS011;48016;50.284;18.860;2022-08-21T17:32:08;3.88;;;2.75;;
62056;SDS011;48016;50.284;18.860;2022-08-21T17:34:37;4.73;;;2.60;;
62056;SDS011;48016;50.284;18.860;2022-08-21T17:37:05;3.65;;;2.70;;
62056;SDS011;48016;50.284;18.860;2022-08-21T17:39:33;3.83;;;2.60;;
62056;SDS011;48016;50.284;18.860;2022-08-21T17:42:02;4.58;;;2.98;;